createdAt,value
2017-06-26T00:01:09.938Z,18.30
2017-06-26T00:03:37.564Z,18.20
2017-06-26T00:06:06.266Z,18.30
2017-06-26T00:08:33.897Z,18.20
2017-06-26T00:11:01.539Z,18.40
2017-06-26T00:13:29.196Z,18.30
2017-06-26T00:15:56.835Z,18.30
2017-06-26T00:18:24.811Z,18.30
2017-06-26T00:20:52.458Z,18.30
2017-06-26T00:23:20.084Z,18.30
2017-06-26T00:25:47.745Z,18.30
2017-06-26T00:28:15.380Z,18.10
2017-06-26T00:30:43.452Z,18.10
2017-06-26T00:33:11.083Z,18.10
2017-06-26T00:35:38.720Z,18.00
2017-06-26T00:38:06.372Z,17.90
2017-06-26T00:40:34.008Z,17.90
2017-06-26T00:43:01.990Z,17.90
2017-06-26T00:45:29.627Z,17.80
2017-06-26T00:47:57.250Z,17.80
2017-06-26T00:50:25.715Z,17.70
2017-06-26T00:52:53.348Z,17.60
2017-06-26T00:55:22.076Z,17.70
2017-06-26T00:57:49.712Z,17.60
2017-06-26T01:00:17.348Z,17.70
2017-06-26T01:02:45.042Z,17.70
2017-06-26T01:05:13.569Z,17.70
2017-06-26T01:07:41.478Z,17.60
2017-06-26T01:10:09.870Z,17.70
2017-06-26T01:12:37.503Z,17.60
2017-06-26T01:15:05.189Z,17.70
2017-06-26T01:17:32.831Z,17.70
2017-06-26T01:20:00.778Z,17.70
2017-06-26T01:22:28.407Z,17.70
2017-06-26T01:24:56.130Z,17.40
2017-06-26T01:27:24.566Z,17.40
2017-06-26T01:29:52.202Z,17.30
2017-06-26T01:32:20.166Z,17.50
2017-06-26T01:34:47.792Z,17.60
2017-06-26T01:37:15.427Z,17.50
2017-06-26T01:39:43.082Z,17.50
2017-06-26T01:42:10.711Z,17.50
2017-06-26T01:44:38.686Z,17.60
2017-06-26T01:47:06.327Z,17.50
2017-06-26T01:49:33.955Z,17.50
2017-06-26T01:52:01.623Z,17.50
2017-06-26T01:54:29.251Z,17.50
2017-06-26T01:56:57.266Z,17.50
2017-06-26T01:59:24.910Z,17.60
2017-06-26T02:01:52.576Z,17.40
2017-06-26T02:04:21.028Z,17.40
2017-06-26T02:06:48.666Z,17.40
2017-06-26T02:09:16.690Z,17.30
2017-06-26T02:11:44.343Z,17.20
2017-06-26T02:14:11.980Z,17.20
2017-06-26T02:16:39.649Z,17.20
2017-06-26T02:19:07.279Z,17.00
2017-06-26T02:21:35.221Z,17.00
2017-06-26T02:24:02.872Z,16.80
2017-06-26T02:26:30.515Z,16.80
2017-06-26T02:28:58.187Z,16.80
2017-06-26T02:31:25.894Z,16.80
2017-06-26T02:33:53.846Z,16.70
2017-06-26T02:36:21.493Z,16.70
2017-06-26T02:38:49.131Z,16.70
2017-06-26T02:41:16.804Z,16.70
2017-06-26T02:43:44.439Z,16.60
2017-06-26T02:46:12.394Z,16.60
2017-06-26T02:48:40.033Z,16.60
2017-06-26T02:51:07.689Z,16.60
2017-06-26T02:53:35.355Z,16.60
2017-06-26T02:56:02.994Z,16.60
2017-06-26T02:58:30.947Z,16.60
2017-06-26T03:00:58.584Z,16.70
2017-06-26T03:03:26.218Z,16.70
2017-06-26T03:05:53.874Z,16.80
2017-06-26T03:08:21.515Z,16.90
2017-06-26T03:10:49.539Z,17.00
2017-06-26T03:13:17.181Z,17.00
2017-06-26T03:15:44.820Z,17.00
2017-06-26T03:18:13.272Z,17.20
2017-06-26T03:20:40.915Z,17.10
2017-06-26T03:23:08.855Z,17.20
2017-06-26T03:25:36.487Z,17.30
2017-06-26T03:28:04.133Z,17.40
2017-06-26T03:30:31.808Z,17.30
2017-06-26T03:32:59.455Z,17.40
2017-06-26T03:35:27.401Z,17.40
2017-06-26T03:37:55.077Z,17.50
2017-06-26T03:40:22.744Z,17.60
2017-06-26T03:42:51.170Z,17.70
2017-06-26T03:45:18.806Z,17.60
2017-06-26T03:47:46.745Z,17.70
2017-06-26T03:50:14.383Z,17.80
2017-06-26T03:52:42.042Z,17.80
2017-06-26T03:55:09.694Z,17.70
2017-06-26T03:57:37.314Z,17.80
2017-06-26T04:00:05.283Z,17.80
2017-06-26T04:02:32.915Z,17.90
2017-06-26T04:05:00.542Z,17.90
2017-06-26T04:07:28.983Z,18.00
2017-06-26T04:09:56.622Z,18.00
2017-06-26T04:12:24.641Z,18.10
2017-06-26T04:14:52.301Z,18.10
2017-06-26T04:17:19.926Z,18.10
2017-06-26T04:19:47.577Z,18.10
2017-06-26T04:22:15.350Z,18.10
2017-06-26T04:24:43.284Z,18.10
2017-06-26T04:27:10.916Z,18.20
2017-06-26T04:29:38.551Z,18.20
2017-06-26T04:32:06.211Z,18.20
2017-06-26T04:34:34.501Z,18.20
2017-06-26T04:37:02.434Z,18.20
2017-06-26T04:39:30.067Z,18.30
2017-06-26T04:41:57.781Z,18.30
2017-06-26T04:44:25.498Z,18.30
2017-06-26T04:46:53.127Z,18.40
2017-06-26T04:49:21.040Z,18.40
2017-06-26T04:51:49.430Z,18.50
2017-06-26T04:54:17.108Z,18.40
2017-06-26T04:56:44.771Z,18.50
2017-06-26T04:59:12.399Z,18.50
2017-06-26T05:01:40.479Z,18.50
2017-06-26T05:04:08.118Z,18.60
2017-06-26T05:06:35.782Z,18.60
2017-06-26T05:09:03.454Z,18.60
2017-06-26T05:11:31.136Z,18.60
2017-06-26T05:13:59.287Z,18.60
2017-06-26T05:16:27.077Z,18.70
2017-06-26T05:18:54.722Z,18.70
2017-06-26T05:21:22.395Z,18.70
2017-06-26T05:23:50.790Z,18.70
2017-06-26T05:26:18.739Z,18.60
2017-06-26T05:28:46.364Z,18.70
2017-06-26T05:31:14.002Z,18.80
2017-06-26T05:33:42.438Z,18.90
2017-06-26T05:36:10.079Z,18.80
2017-06-26T05:38:38.014Z,18.90
2017-06-26T05:41:05.731Z,19.10
2017-06-26T05:43:33.362Z,19.30
2017-06-26T05:46:01.012Z,19.40
2017-06-26T05:48:29.412Z,19.80
2017-06-26T05:50:57.385Z,19.70
2017-06-26T05:53:25.043Z,19.70
2017-06-26T05:55:52.679Z,19.70
2017-06-26T05:58:20.333Z,19.80
2017-06-26T06:00:47.951Z,20.00
2017-06-26T06:03:16.058Z,20.40
2017-06-26T06:05:43.683Z,20.90
2017-06-26T06:08:11.327Z,21.20
2017-06-26T06:10:38.985Z,21.50
2017-06-26T06:13:06.731Z,22.20
2017-06-26T06:15:34.760Z,23.00
2017-06-26T06:18:02.368Z,23.50
2017-06-26T06:20:29.982Z,24.20
2017-06-26T06:22:58.516Z,24.40
2017-06-26T06:25:26.140Z,24.60
2017-06-26T06:27:54.831Z,24.30
2017-06-26T06:30:22.440Z,24.30
2017-06-26T06:32:50.047Z,24.40
2017-06-26T06:35:17.681Z,24.90
2017-06-26T06:37:45.296Z,25.20
2017-06-26T06:40:13.935Z,25.20
2017-06-26T06:42:41.530Z,25.10
2017-06-26T06:45:09.127Z,26.10
2017-06-26T06:47:37.015Z,26.60
2017-06-26T06:50:04.627Z,26.80
2017-06-26T06:52:32.543Z,26.80
2017-06-26T06:55:00.157Z,27.60
2017-06-26T06:57:29.449Z,27.10
2017-06-26T06:59:57.119Z,27.20
2017-06-26T07:02:24.731Z,27.20
2017-06-26T07:04:53.429Z,28.30
2017-06-26T07:07:21.044Z,28.20
2017-06-26T07:09:49.422Z,28.80
2017-06-26T07:12:17.148Z,28.80
2017-06-26T07:14:44.776Z,28.10
2017-06-26T07:17:12.691Z,28.10
2017-06-26T07:19:40.314Z,28.40
2017-06-26T07:22:08.030Z,28.20
2017-06-26T07:24:35.691Z,28.50
2017-06-26T07:27:04.069Z,28.60
2017-06-26T07:29:32.026Z,28.60
2017-06-26T07:31:59.650Z,28.80
2017-06-26T07:34:27.251Z,29.00
2017-06-26T07:36:54.897Z,28.30
2017-06-26T07:39:22.496Z,28.50
2017-06-26T07:41:51.212Z,27.70
2017-06-26T07:44:18.846Z,27.70
2017-06-26T07:46:46.648Z,27.50
2017-06-26T07:49:14.297Z,27.70
2017-06-26T07:51:41.904Z,27.60
2017-06-26T07:54:09.850Z,27.90
2017-06-26T07:56:37.520Z,27.90
2017-06-26T07:59:05.123Z,28.60
2017-06-26T08:01:32.831Z,29.10
2017-06-26T08:04:00.451Z,29.10
2017-06-26T08:06:28.334Z,28.70
2017-06-26T08:08:56.259Z,29.40
2017-06-26T08:11:23.891Z,29.50
2017-06-26T08:13:51.525Z,30.20
2017-06-26T08:16:19.161Z,30.00
2017-06-26T08:18:47.236Z,30.00
2017-06-26T08:21:14.855Z,29.30
2017-06-26T08:23:43.345Z,27.00
2017-06-26T08:26:10.980Z,26.90
2017-06-26T08:28:38.592Z,26.20
2017-06-26T08:31:06.584Z,25.90
2017-06-26T08:33:34.186Z,25.90
2017-06-26T08:36:01.808Z,25.60
2017-06-26T08:38:29.459Z,25.40
2017-06-26T08:40:57.146Z,25.60
2017-06-26T08:43:25.997Z,25.90
2017-06-26T08:45:53.602Z,25.80
2017-06-26T08:48:21.199Z,25.70
2017-06-26T08:50:48.835Z,25.60
2017-06-26T08:53:16.585Z,25.70
2017-06-26T08:55:44.589Z,25.90
2017-06-26T08:58:12.195Z,25.90
2017-06-26T09:00:39.800Z,25.70
2017-06-26T09:03:07.439Z,25.80
2017-06-26T09:05:35.170Z,25.60
2017-06-26T09:08:03.115Z,25.20
2017-06-26T09:10:30.732Z,24.80
2017-06-26T09:12:58.343Z,24.20
2017-06-26T09:15:26.150Z,23.80
2017-06-26T09:17:53.780Z,23.50
2017-06-26T09:20:21.771Z,23.00
2017-06-26T09:22:49.371Z,22.80
2017-06-26T09:25:17.107Z,22.60
2017-06-26T09:27:44.751Z,22.50
2017-06-26T09:30:12.397Z,22.50
2017-06-26T09:32:40.415Z,22.50
2017-06-26T09:35:08.022Z,22.40
2017-06-26T09:37:36.407Z,22.30
2017-06-26T09:40:04.065Z,22.20
2017-06-26T09:42:31.676Z,22.10
2017-06-26T09:44:59.658Z,22.00
2017-06-26T09:47:27.383Z,22.10
2017-06-26T09:49:55.017Z,22.00
2017-06-26T09:52:22.812Z,22.00
2017-06-26T09:54:50.422Z,21.80
2017-06-26T09:57:19.151Z,21.40
2017-06-26T09:59:46.824Z,21.40
2017-06-26T10:02:14.430Z,21.20
2017-06-26T10:04:42.092Z,21.10
2017-06-26T10:07:09.713Z,21.00
2017-06-26T10:09:37.652Z,20.80
2017-06-26T10:12:06.119Z,20.60
2017-06-26T10:14:33.763Z,20.60
2017-06-26T10:17:01.403Z,20.40
2017-06-26T10:19:29.037Z,20.30
2017-06-26T10:21:57.039Z,20.20
2017-06-26T10:24:24.669Z,20.10
2017-06-26T10:26:52.326Z,19.90
2017-06-26T10:29:19.996Z,19.70
2017-06-26T10:31:47.644Z,19.70
2017-06-26T10:34:15.716Z,19.70
2017-06-26T10:36:44.112Z,19.50
2017-06-26T10:39:11.758Z,19.50
2017-06-26T10:41:39.435Z,19.50
2017-06-26T10:44:07.110Z,19.50
2017-06-26T10:46:35.176Z,19.50
2017-06-26T10:49:02.813Z,19.60
2017-06-26T10:51:30.450Z,19.70
2017-06-26T10:53:58.144Z,19.90
2017-06-26T10:56:26.078Z,19.90
2017-06-26T10:58:54.084Z,19.90
2017-06-26T11:01:21.710Z,19.90
2017-06-26T11:03:50.096Z,20.10
2017-06-26T11:06:17.772Z,20.00
2017-06-26T11:08:45.636Z,20.20
2017-06-26T11:11:13.553Z,20.30
2017-06-26T11:13:41.163Z,20.50
2017-06-26T11:16:09.541Z,20.70
2017-06-26T11:18:37.297Z,20.70
2017-06-26T11:21:04.908Z,21.00
2017-06-26T11:23:33.115Z,21.10
2017-06-26T11:26:00.753Z,21.40
2017-06-26T11:28:28.473Z,21.40
2017-06-26T11:30:56.310Z,21.50
2017-06-26T11:33:23.934Z,21.20
2017-06-26T11:35:52.068Z,21.30
2017-06-26T11:38:19.680Z,21.20
2017-06-26T11:40:48.058Z,21.20
2017-06-26T11:43:15.788Z,21.10
2017-06-26T11:45:44.171Z,21.20
2017-06-26T11:48:12.136Z,21.10
2017-06-26T11:53:17.310Z,20.60
2017-06-26T11:55:44.936Z,20.20
2017-06-26T11:58:12.814Z,20.10
2017-06-26T12:00:40.449Z,20.00
2017-06-26T12:03:08.073Z,19.90
2017-06-26T12:05:36.143Z,19.90
2017-06-26T12:08:03.766Z,19.90
2017-06-26T12:10:32.341Z,19.90
2017-06-26T12:13:00.021Z,19.80
2017-06-26T12:15:28.444Z,20.10
2017-06-26T12:17:56.558Z,20.00
2017-06-26T12:20:24.949Z,20.80
2017-06-26T12:22:52.849Z,20.70
2017-06-26T12:25:20.490Z,21.20
2017-06-26T12:27:48.112Z,21.40
2017-06-26T12:30:16.149Z,21.40
2017-06-26T12:32:43.773Z,21.50
2017-06-26T12:35:12.161Z,21.60
2017-06-26T12:37:39.816Z,21.50
2017-06-26T12:40:07.473Z,21.60
2017-06-26T12:42:35.508Z,21.60
2017-06-26T12:45:03.126Z,21.70
2017-06-26T12:47:31.517Z,22.00
2017-06-26T12:49:59.143Z,21.90
2017-06-26T12:52:27.527Z,22.00
2017-06-26T12:54:55.589Z,22.00
2017-06-26T12:57:23.222Z,22.10
2017-06-26T12:59:50.854Z,22.30
2017-06-26T13:02:18.517Z,22.30
2017-06-26T13:04:46.164Z,22.30
2017-06-26T13:07:14.104Z,22.30
2017-06-26T13:09:42.484Z,22.10
2017-06-26T13:12:10.104Z,22.00
2017-06-26T13:14:38.629Z,22.00
2017-06-26T13:17:13.073Z,21.90
2017-06-26T13:19:41.267Z,21.80
2017-06-26T13:22:08.883Z,21.90
2017-06-26T13:24:37.274Z,22.00
2017-06-26T13:27:05.077Z,21.90
2017-06-26T13:29:32.814Z,22.00
2017-06-26T13:32:00.763Z,22.00
2017-06-26T13:34:29.278Z,22.00
2017-06-26T13:36:57.716Z,22.20
2017-06-26T13:39:25.365Z,22.20
2017-06-26T13:41:52.980Z,22.40
2017-06-26T13:44:20.899Z,22.70
2017-06-26T13:46:48.535Z,22.60
2017-06-26T13:49:16.246Z,22.50
2017-06-26T13:51:43.878Z,22.40
2017-06-26T13:54:11.486Z,22.40
2017-06-26T13:56:39.441Z,22.50
2017-06-26T13:59:07.088Z,22.50
2017-06-26T14:01:34.701Z,22.40
2017-06-26T14:04:02.360Z,22.50
2017-06-26T14:06:30.009Z,22.60
2017-06-26T14:08:57.996Z,22.50
2017-06-26T14:11:25.730Z,22.50
2017-06-26T14:13:53.350Z,22.40
2017-06-26T14:16:21.007Z,22.40
2017-06-26T14:18:48.666Z,22.40
2017-06-26T14:21:16.631Z,22.40
2017-06-26T14:23:44.277Z,22.40
2017-06-26T14:26:12.055Z,22.40
2017-06-26T14:28:39.716Z,22.40
2017-06-26T14:31:07.339Z,22.40
2017-06-26T14:33:35.305Z,22.50
2017-06-26T14:36:02.916Z,22.50
2017-06-26T14:38:31.570Z,22.20
2017-06-26T14:40:59.989Z,22.20
2017-06-26T14:43:27.599Z,22.10
2017-06-26T14:45:55.537Z,22.00
2017-06-26T14:48:23.171Z,22.00
2017-06-26T14:50:51.556Z,21.80
2017-06-26T14:53:19.205Z,21.80
2017-06-26T14:55:46.843Z,21.80
2017-06-26T14:58:15.661Z,21.80
2017-06-26T15:00:43.289Z,21.80
2017-06-26T15:03:10.922Z,21.80
2017-06-26T15:05:38.564Z,21.80
2017-06-26T15:08:06.188Z,21.80
2017-06-26T15:10:34.268Z,21.70
2017-06-26T15:13:02.006Z,21.70
2017-06-26T15:15:29.661Z,21.60
2017-06-26T15:17:57.343Z,21.60
2017-06-26T15:20:24.960Z,21.60
2017-06-26T15:22:52.859Z,21.60
2017-06-26T15:25:20.470Z,21.40
2017-06-26T15:27:48.150Z,21.40
2017-06-26T15:30:16.017Z,21.30
2017-06-26T15:32:43.637Z,21.20
2017-06-26T15:35:11.614Z,21.30
2017-06-26T15:37:39.316Z,21.30
2017-06-26T15:40:06.969Z,21.30
2017-06-26T15:42:34.628Z,21.30
2017-06-26T15:45:02.247Z,21.20
2017-06-26T15:47:30.160Z,21.40
2017-06-26T15:49:58.577Z,21.50
2017-06-26T15:52:27.605Z,21.50
2017-06-26T15:54:55.260Z,21.40
2017-06-26T15:57:23.662Z,21.50
2017-06-26T15:59:56.184Z,21.40
2017-06-26T16:02:24.558Z,21.40
2017-06-26T16:04:52.187Z,21.40
2017-06-26T16:07:20.796Z,21.30
2017-06-26T16:09:48.412Z,21.30
2017-06-26T16:12:16.581Z,21.30
2017-06-26T16:14:44.238Z,21.40
2017-06-26T16:17:11.877Z,21.40
2017-06-26T16:19:39.742Z,21.20
2017-06-26T16:22:07.428Z,21.10
2017-06-26T16:24:35.508Z,21.20
2017-06-26T16:27:04.008Z,21.20
2017-06-26T16:29:31.629Z,21.10
2017-06-26T16:31:59.734Z,21.20
2017-06-26T16:34:27.423Z,21.30
2017-06-26T16:36:55.679Z,21.30
2017-06-26T16:39:23.448Z,21.10
2017-06-26T16:41:51.833Z,21.10
2017-06-26T16:44:19.500Z,21.00
2017-06-26T16:46:47.453Z,21.10
2017-06-26T16:49:15.590Z,21.00
2017-06-26T16:51:43.221Z,20.90
2017-06-26T16:54:10.893Z,20.90
2017-06-26T16:56:38.550Z,20.80
2017-06-26T16:59:06.251Z,20.80
2017-06-26T17:01:35.224Z,20.60
2017-06-26T17:04:02.949Z,20.60
2017-06-26T17:06:30.618Z,20.70
2017-06-26T17:08:59.044Z,20.80
2017-06-26T17:11:26.785Z,20.70
2017-06-26T17:13:54.895Z,20.70
2017-06-26T17:16:23.274Z,20.60
2017-06-26T17:18:51.677Z,20.60
2017-06-26T17:21:19.400Z,20.50
2017-06-26T17:23:47.128Z,20.50
2017-06-26T17:26:15.920Z,20.70
2017-06-26T17:28:43.578Z,20.60
2017-06-26T17:31:11.364Z,20.60
2017-06-26T17:33:39.044Z,20.50
2017-06-26T17:36:06.739Z,20.40
2017-06-26T17:38:34.772Z,20.50
2017-06-26T17:41:02.454Z,20.50
2017-06-26T17:43:30.200Z,20.50
2017-06-26T17:45:57.930Z,20.50
2017-06-26T17:48:25.683Z,20.50
2017-06-26T17:50:53.619Z,20.30
2017-06-26T17:53:21.320Z,20.20
2017-06-26T17:55:48.955Z,20.20
2017-06-26T17:58:16.799Z,20.10
2017-06-26T18:00:44.456Z,20.00
2017-06-26T18:03:12.467Z,20.10
2017-06-26T18:05:40.131Z,20.10
2017-06-26T18:08:07.803Z,20.10
2017-06-26T18:10:36.244Z,20.00
2017-06-26T18:13:03.855Z,19.90
2017-06-26T18:15:31.791Z,19.90
2017-06-26T18:17:59.444Z,19.90
2017-06-26T18:20:27.151Z,19.90
2017-06-26T18:22:55.721Z,19.90
2017-06-26T18:25:23.359Z,19.90
2017-06-26T18:27:51.283Z,19.90
2017-06-26T18:30:18.938Z,19.90
2017-06-26T18:32:46.571Z,19.90
2017-06-26T18:35:14.253Z,19.90
2017-06-26T18:37:41.913Z,19.80
2017-06-26T18:40:10.613Z,19.80
2017-06-26T18:42:40.439Z,19.80
2017-06-26T18:45:08.074Z,19.80
2017-06-26T18:47:35.769Z,19.80
2017-06-26T18:50:03.445Z,19.80
2017-06-26T18:52:32.158Z,19.70
2017-06-26T18:54:59.819Z,19.70
2017-06-26T18:57:27.489Z,19.70
2017-06-26T18:59:55.192Z,19.70
2017-06-26T19:02:22.842Z,19.60
2017-06-26T19:04:52.393Z,19.60
2017-06-26T19:07:20.149Z,19.50
2017-06-26T19:09:47.793Z,19.40
2017-06-26T19:12:15.617Z,19.40
2017-06-26T19:14:43.272Z,19.40
2017-06-26T19:17:11.958Z,19.10
2017-06-26T19:19:39.686Z,19.10
2017-06-26T19:22:07.321Z,19.10
2017-06-26T19:24:35.097Z,19.10
2017-06-26T19:27:03.593Z,18.80
2017-06-26T19:29:31.541Z,18.70
2017-06-26T19:31:59.175Z,18.70
2017-06-26T19:34:27.074Z,18.80
2017-06-26T19:36:54.729Z,18.70
2017-06-26T19:39:22.408Z,18.70
2017-06-26T19:41:53.067Z,18.70
2017-06-26T19:44:21.351Z,18.70
2017-06-26T19:46:48.985Z,18.70
2017-06-26T19:49:16.757Z,18.60
2017-06-26T19:51:45.564Z,18.60
2017-06-26T19:54:15.784Z,18.50
2017-06-26T19:56:43.571Z,18.50
2017-06-26T19:59:12.848Z,18.40
2017-06-26T20:01:40.580Z,18.40
2017-06-26T20:04:08.440Z,18.30
2017-06-26T20:06:36.625Z,18.20
2017-06-26T20:09:05.459Z,18.10
2017-06-26T20:11:33.120Z,18.10
2017-06-26T20:14:00.795Z,18.00
2017-06-26T20:16:28.421Z,17.80
2017-06-26T20:18:56.583Z,17.50
2017-06-26T20:21:24.241Z,17.40
2017-06-26T20:23:52.094Z,17.30
2017-06-26T20:26:19.854Z,17.20
2017-06-26T20:28:47.517Z,17.10
2017-06-26T20:31:16.496Z,17.10
2017-06-26T20:33:45.866Z,17.10
2017-06-26T20:36:13.539Z,17.00
2017-06-26T20:38:41.732Z,17.00
2017-06-26T20:41:11.792Z,16.80
2017-06-26T20:43:40.217Z,16.80
2017-06-26T20:46:07.905Z,16.70
2017-06-26T20:48:35.766Z,16.70
2017-06-26T20:51:03.445Z,16.70
2017-06-26T20:53:31.096Z,16.60
2017-06-26T20:55:59.042Z,16.50
2017-06-26T20:58:26.703Z,16.40
2017-06-26T21:00:54.355Z,16.30
2017-06-26T21:03:22.018Z,16.30
2017-06-26T21:05:49.670Z,16.10
2017-06-26T21:08:17.594Z,16.10
2017-06-26T21:10:45.237Z,16.10
2017-06-26T21:13:12.898Z,16.10
2017-06-26T21:15:40.561Z,16.00
2017-06-26T21:18:08.217Z,15.90
2017-06-26T21:20:36.256Z,15.80
2017-06-26T21:23:03.900Z,15.90
2017-06-26T21:25:31.539Z,15.80
2017-06-26T21:27:59.217Z,15.80
2017-06-26T21:30:27.119Z,15.80
2017-06-26T21:32:55.186Z,15.70
2017-06-26T21:35:22.896Z,15.70
2017-06-26T21:37:50.579Z,15.70
2017-06-26T21:40:18.382Z,15.60
2017-06-26T21:42:46.122Z,15.60
2017-06-26T21:45:14.837Z,15.50
2017-06-26T21:47:42.501Z,15.50
2017-06-26T21:50:10.143Z,15.50
2017-06-26T21:52:37.940Z,15.40
2017-06-26T21:55:06.420Z,15.30
2017-06-26T21:57:34.461Z,15.30
2017-06-26T22:00:02.973Z,15.20
2017-06-26T22:02:30.631Z,15.20
2017-06-26T22:04:58.350Z,15.20
2017-06-26T22:07:26.032Z,15.20
2017-06-26T22:09:54.107Z,15.20
2017-06-26T22:12:21.748Z,15.10
2017-06-26T22:14:50.309Z,15.00
2017-06-26T22:17:17.973Z,15.00
2017-06-26T22:19:46.391Z,14.80
2017-06-26T22:22:14.363Z,14.70
2017-06-26T22:24:42.012Z,14.80
2017-06-26T22:27:09.639Z,14.80
2017-06-26T22:29:37.300Z,14.70
2017-06-26T22:32:04.977Z,14.70
2017-06-26T22:34:33.024Z,14.60
2017-06-26T22:37:00.669Z,14.60
2017-06-26T22:39:28.324Z,14.60
2017-06-26T22:41:56.125Z,14.50
2017-06-26T22:44:23.774Z,14.50
2017-06-26T22:46:51.752Z,14.50
2017-06-26T22:49:19.398Z,14.30
2017-06-26T22:51:47.094Z,14.30
2017-06-26T22:54:14.763Z,14.40
2017-06-26T22:56:42.408Z,14.40
2017-06-26T22:59:10.388Z,14.40
2017-06-26T23:01:38.023Z,14.40
2017-06-26T23:04:05.726Z,14.30
2017-06-26T23:06:34.168Z,14.20
2017-06-26T23:09:01.816Z,14.20
2017-06-26T23:11:29.755Z,14.20
2017-06-26T23:13:57.389Z,14.20
2017-06-26T23:16:25.148Z,14.20
2017-06-26T23:18:52.827Z,14.10
2017-06-26T23:21:20.460Z,14.10
2017-06-26T23:23:48.500Z,14.10
2017-06-26T23:26:16.148Z,14.10
2017-06-26T23:28:43.795Z,14.00
2017-06-26T23:31:11.464Z,14.00
2017-06-26T23:33:39.108Z,13.90
2017-06-26T23:36:07.234Z,13.90
2017-06-26T23:38:34.880Z,13.90
2017-06-26T23:41:02.525Z,13.90
2017-06-26T23:43:30.265Z,13.80
2017-06-26T23:45:57.968Z,13.80
2017-06-26T23:48:26.098Z,13.80
2017-06-26T23:50:53.732Z,13.80
2017-06-26T23:53:21.368Z,13.80
2017-06-26T23:55:49.077Z,13.70
2017-06-26T23:58:16.715Z,13.70
